Terminal Aerodrome Forecast
Issued by NWS

Home | Current Version | Previous Version | Text Only | Print | Product List | Glossary On
Versions: 1 2 3 4 5 6 7 8 9 10 11 12 13 14 15 16 17 18 19 20 21 22 23 24 25 26 27 28 29 30 31 32 33 34 35 36 37 38 39 40 41 42 43 44 45 46 47
000
FTUS41 KBTV 221855 AAA
TAFPBG
TAF AMD
KPBG 221855Z 2219/2318 36015KT P6SM VCSH SCT015 OVC035
      TEMPO 2219/2223 5SM -RA BR BKN011
     FM222300 35017KT 5SM -DZ BR OVC011
     FM230800 36017KT 4SM -RA BR OVC006=

USA.gov is the U.S. government's official web portal to all federal, state and local government web resources and services.